Sunflower Hakata — JL6711 — position and weather

sailwx.info

Track history (hours):
 
Tides and Currents Weather Stations Pressure Air Temp Water Temp Dewpoint Dewpoint Depression Visibility Wind Speed Wind Dir Waves Ship Positions

Sunflower Hakata

Last reported at 2016-May-01 22:31 UTC. Time now 2016-May-01 23:07 UTC.
Position N 33°38' E 130°24'.

Length 167 m; draft 6.5 m.

Type: Cargo ship. MMSI: 431501764.

Date/timePositionNaut miles runAvg speedWind from/ knotsBaromVisibWave heightAir tempDewpointWater temp
2016-May-01 22:31N 33°38' E 130°24'0 0.0
2016-May-01 21:31N 33°38' E 130°24'0 0.0
2016-May-01 20:32N 33°38' E 130°24'9 8.8
2016-May-01 19:33N 33°42' E 130°15'2119.2
2016-May-01 18:29N 33°59' E 130°30'40015.9
2016-Apr-30 17:20N 34°29' E 138°33'5018.0
2016-Apr-30 14:33N 34°55' E 139°25'2019.6
2016-Apr-30 13:33N 35°07' E 139°44'1313.3
2016-Apr-30 12:33N 35°20' E 139°42'1616.4
2016-Apr-30 11:33N 35°36' E 139°50'3 2.7
2016-Apr-30 10:32N 35°37' E 139°48'0 0.0
2016-Apr-30 09:29N 35°37' E 139°48'0 0.0
2016-Apr-30 08:32N 35°37' E 139°48'0 0.0
2016-Apr-30 07:32N 35°37' E 139°48'0 0.0
2016-Apr-30 06:31N 35°37' E 139°48'0 0.0
2016-Apr-30 05:32N 35°37' E 139°48'0 0.0
2016-Apr-30 04:32N 35°37' E 139°48'0 0.0
2016-Apr-30 03:32N 35°37' E 139°48'0 0.0
2016-Apr-30 02:23N 35°37' E 139°48'0 0.0
2016-Apr-30 01:32N 35°37' E 139°48'0 0.0
2016-Apr-30 00:32N 35°37' E 139°48'0 0.0
2016-Apr-29 23:32N 35°37' E 139°48'0 0.0
2016-Apr-29 22:32N 35°37' E 139°48'0 0.0
2016-Apr-29 21:32N 35°37' E 139°48'0 0.2
2016-Apr-29 20:33N 35°37' E 139°48'1212.0
2016-Apr-29 19:33N 35°25' E 139°47'1211.8
2016-Apr-29 18:33N 35°13' E 139°47'2519.8
2016-Apr-29 17:18N 34°54' E 139°27'23019.2
2016-Apr-29 05:22N 33°54' E 134°59'1822.8
2016-Apr-29 04:33N 34°13' E 134°58'2222.4
2016-Apr-29 03:33N 34°35' E 135°03'2019.0
2016-Apr-29 02:30N 34°33' E 134°39'19113.6
2016-Apr-28 12:28N 34°00' E 130°50'1717.8
2016-Apr-28 11:32N 33°59' E 130°30'1717.6
2016-Apr-28 10:33N 33°46' E 130°17'1010.1
2016-Apr-28 09:33N 33°38' E 130°24'0 0.0
2016-Apr-28 08:33N 33°38' E 130°24'0 0.0
2016-Apr-28 07:33N 33°38' E 130°24'0 0.0
2016-Apr-28 06:31N 33°38' E 130°24'0 0.0
2016-Apr-28 05:31N 33°38' E 130°24'0 0.0
2016-Apr-28 04:31N 33°38' E 130°24'0 0.0
2016-Apr-28 03:31N 33°38' E 130°24'0 0.0
2016-Apr-28 02:31N 33°38' E 130°24'0 0.0
2016-Apr-28 01:33N 33°38' E 130°24'0 0.0
2016-Apr-28 00:32N 33°38' E 130°24'0 0.0
2016-Apr-27 23:33N 33°38' E 130°24'0 0.0
2016-Apr-27 22:33N 33°38' E 130°24'0 0.0
2016-Apr-27 21:32N 33°38' E 130°24'0 0.0
2016-Apr-27 20:33N 33°38' E 130°24'9 8.9
2016-Apr-27 19:33N 33°42' E 130°15'1918.0
2016-Apr-27 18:30N 33°58' E 130°28'40216.0
2016-Apr-26 17:19N 34°30' E 138°32'3618.4
2016-Apr-26 15:22N 34°45' E 139°12'1620.3
2016-Apr-26 14:34N 34°56' E 139°26'2019.8
2016-Apr-26 13:33N 35°09' E 139°44'1413.6
2016-Apr-26 12:34N 35°22' E 139°42'1515.4
2016-Apr-26 11:33N 35°37' E 139°49'1 1.0
2016-Apr-26 10:31N 35°37' E 139°48'0 0.0
2016-Apr-26 09:31N 35°37' E 139°48'0 0.0
2016-Apr-26 08:31N 35°37' E 139°48'0 0.0
2016-Apr-26 07:31N 35°37' E 139°48'0 0.0
2016-Apr-26 06:28N 35°37' E 139°48'0 0.0
2016-Apr-26 05:31N 35°37' E 139°48'0 0.0
2016-Apr-26 04:28N 35°37' E 139°48'0 0.0
2016-Apr-26 03:31N 35°37' E 139°48'0 0.0
2016-Apr-26 02:31N 35°37' E 139°48'0 0.0
2016-Apr-26 01:31N 35°37' E 139°48'0 0.0
2016-Apr-26 00:31N 35°37' E 139°48'0 0.0
2016-Apr-25 23:31N 35°37' E 139°48'0 0.1
2016-Apr-25 22:28N 35°37' E 139°48'0 0.0
2016-Apr-25 21:28N 35°37' E 139°48'0 0.0
2016-Apr-25 20:31N 35°37' E 139°48'0 0.0
2016-Apr-25 19:31N 35°37' E 139°48'0 0.0
2016-Apr-25 18:31N 35°37' E 139°48'0 0.0
2016-Apr-25 17:31N 35°37' E 139°48'0 0.0
2016-Apr-25 16:31N 35°37' E 139°48'0 0.0
2016-Apr-25 15:28N 35°37' E 139°48'0 0.0
2016-Apr-25 14:31N 35°37' E 139°48'0 0.0
2016-Apr-25 13:31N 35°37' E 139°48'0 0.0
2016-Apr-25 12:31N 35°37' E 139°48'0 0.0
2016-Apr-25 11:31N 35°37' E 139°48'0 0.0
2016-Apr-25 10:31N 35°37' E 139°48'0 0.0
2016-Apr-25 09:28N 35°37' E 139°48'0 0.0
2016-Apr-25 08:31N 35°37' E 139°48'0 0.0
2016-Apr-25 07:28N 35°37' E 139°48'0 0.0
2016-Apr-25 06:28N 35°37' E 139°48'0 0.0
2016-Apr-25 05:28N 35°37' E 139°48'0 0.0
2016-Apr-25 04:28N 35°37' E 139°48'0 0.0
2016-Apr-25 03:31N 35°37' E 139°48'0 0.0
2016-Apr-25 02:31N 35°37' E 139°48'0 0.0
2016-Apr-25 01:31N 35°37' E 139°48'0 0.0
2016-Apr-25 00:31N 35°37' E 139°48'0 0.0
2016-Apr-24 23:31N 35°37' E 139°48'0 0.0
2016-Apr-24 22:31N 35°37' E 139°48'0 0.0
2016-Apr-24 21:31N 35°37' E 139°48'0 0.0
2016-Apr-24 20:33N 35°37' E 139°48'10 9.7
2016-Apr-24 19:33N 35°27' E 139°51'1212.1
2016-Apr-24 18:33N 35°16' E 139°46'1817.0
2016-Apr-24 17:31N 34°60' E 139°37'6419.3
2016-Apr-24 14:11N 34°26' E 138°31'17718.4
2016-Apr-24 04:33N 34°01' E 134°59'2322.5
2016-Apr-24 03:33N 34°23' E 134°60'1312.7
2016-Apr-24 02:33N 34°35' E 134°53'20313.5
2016-Apr-23 11:32N 34°01' E 130°51'2220.9
2016-Apr-23 10:30N 33°57' E 130°25'1919.9
2016-Apr-23 09:33N 33°39' E 130°17'7 6.5
2016-Apr-23 08:32N 33°38' E 130°24'0 0.0
2016-Apr-23 07:32N 33°38' E 130°24'0 0.0
2016-Apr-23 06:33N 33°38' E 130°24'0 0.0
2016-Apr-23 05:33N 33°38' E 130°24'0 0.0
2016-Apr-23 04:33N 33°38' E 130°24'0 0.0
2016-Apr-23 03:33N 33°38' E 130°24'0 0.0
2016-Apr-23 02:33N 33°38' E 130°24'0 0.0
2016-Apr-23 01:33N 33°38' E 130°24'0 0.0
2016-Apr-23 00:33N 33°38' E 130°24'0 0.0
2016-Apr-22 23:33N 33°38' E 130°24'0 0.0
2016-Apr-22 22:33N 33°38' E 130°24'0 0.0
2016-Apr-22 21:30N 33°38' E 130°24'0 0.0
2016-Apr-22 20:32N 33°38' E 130°24'9 9.1
2016-Apr-22 19:33N 33°43' E 130°16'1918.8
2016-Apr-22 18:33N 33°58' E 130°28'  
Track history (hours):
 
Tides and Currents Weather Stations Pressure Air Temp Water Temp Dewpoint Dewpoint Depression Visibility Wind Speed Wind Dir Waves Ship Positions

Sunflower Hakata

Last reported at 2016-May-01 22:31 UTC. Time now 2016-May-01 23:07 UTC.
Position N 33°38' E 130°24'.

Length 167 m; draft 6.5 m.

Type: Cargo ship. MMSI: 431501764.

Date/timePositionNaut miles runAvg speedWind from/ knotsBaromVisibWave heightAir tempDewpointWater temp
2016-May-01 22:31N 33°38' E 130°24'0 0.0
2016-May-01 21:31N 33°38' E 130°24'0 0.0
2016-May-01 20:32N 33°38' E 130°24'9 8.8
2016-May-01 19:33N 33°42' E 130°15'2119.2
2016-May-01 18:29N 33°59' E 130°30'40015.9
2016-Apr-30 17:20N 34°29' E 138°33'5018.0
2016-Apr-30 14:33N 34°55' E 139°25'2019.6
2016-Apr-30 13:33N 35°07' E 139°44'1313.3
2016-Apr-30 12:33N 35°20' E 139°42'1616.4
2016-Apr-30 11:33N 35°36' E 139°50'3 2.7
2016-Apr-30 10:32N 35°37' E 139°48'0 0.0
2016-Apr-30 09:29N 35°37' E 139°48'0 0.0
2016-Apr-30 08:32N 35°37' E 139°48'0 0.0
2016-Apr-30 07:32N 35°37' E 139°48'0 0.0
2016-Apr-30 06:31N 35°37' E 139°48'0 0.0
2016-Apr-30 05:32N 35°37' E 139°48'0 0.0
2016-Apr-30 04:32N 35°37' E 139°48'0 0.0
2016-Apr-30 03:32N 35°37' E 139°48'0 0.0
2016-Apr-30 02:23N 35°37' E 139°48'0 0.0
2016-Apr-30 01:32N 35°37' E 139°48'0 0.0
2016-Apr-30 00:32N 35°37' E 139°48'0 0.0
2016-Apr-29 23:32N 35°37' E 139°48'0 0.0
2016-Apr-29 22:32N 35°37' E 139°48'0 0.0
2016-Apr-29 21:32N 35°37' E 139°48'0 0.2
2016-Apr-29 20:33N 35°37' E 139°48'1212.0
2016-Apr-29 19:33N 35°25' E 139°47'1211.8
2016-Apr-29 18:33N 35°13' E 139°47'2519.8
2016-Apr-29 17:18N 34°54' E 139°27'23019.2
2016-Apr-29 05:22N 33°54' E 134°59'1822.8
2016-Apr-29 04:33N 34°13' E 134°58'2222.4
2016-Apr-29 03:33N 34°35' E 135°03'2019.0
2016-Apr-29 02:30N 34°33' E 134°39'19113.6
2016-Apr-28 12:28N 34°00' E 130°50'1717.8
2016-Apr-28 11:32N 33°59' E 130°30'1717.6
2016-Apr-28 10:33N 33°46' E 130°17'1010.1
2016-Apr-28 09:33N 33°38' E 130°24'0 0.0
2016-Apr-28 08:33N 33°38' E 130°24'0 0.0
2016-Apr-28 07:33N 33°38' E 130°24'0 0.0
2016-Apr-28 06:31N 33°38' E 130°24'0 0.0
2016-Apr-28 05:31N 33°38' E 130°24'0 0.0
2016-Apr-28 04:31N 33°38' E 130°24'0 0.0
2016-Apr-28 03:31N 33°38' E 130°24'0 0.0
2016-Apr-28 02:31N 33°38' E 130°24'0 0.0
2016-Apr-28 01:33N 33°38' E 130°24'0 0.0
2016-Apr-28 00:32N 33°38' E 130°24'0 0.0
2016-Apr-27 23:33N 33°38' E 130°24'0 0.0
2016-Apr-27 22:33N 33°38' E 130°24'0 0.0
2016-Apr-27 21:32N 33°38' E 130°24'0 0.0
2016-Apr-27 20:33N 33°38' E 130°24'9 8.9
2016-Apr-27 19:33N 33°42' E 130°15'1918.0
2016-Apr-27 18:30N 33°58' E 130°28'40216.0
2016-Apr-26 17:19N 34°30' E 138°32'3618.4
2016-Apr-26 15:22N 34°45' E 139°12'1620.3
2016-Apr-26 14:34N 34°56' E 139°26'2019.8
2016-Apr-26 13:33N 35°09' E 139°44'1413.6
2016-Apr-26 12:34N 35°22' E 139°42'1515.4
2016-Apr-26 11:33N 35°37' E 139°49'1 1.0
2016-Apr-26 10:31N 35°37' E 139°48'0 0.0
2016-Apr-26 09:31N 35°37' E 139°48'0 0.0
2016-Apr-26 08:31N 35°37' E 139°48'0 0.0
2016-Apr-26 07:31N 35°37' E 139°48'0 0.0
2016-Apr-26 06:28N 35°37' E 139°48'0 0.0
2016-Apr-26 05:31N 35°37' E 139°48'0 0.0
2016-Apr-26 04:28N 35°37' E 139°48'0 0.0
2016-Apr-26 03:31N 35°37' E 139°48'0 0.0
2016-Apr-26 02:31N 35°37' E 139°48'0 0.0
2016-Apr-26 01:31N 35°37' E 139°48'0 0.0
2016-Apr-26 00:31N 35°37' E 139°48'0 0.0
2016-Apr-25 23:31N 35°37' E 139°48'0 0.1
2016-Apr-25 22:28N 35°37' E 139°48'0 0.0
2016-Apr-25 21:28N 35°37' E 139°48'0 0.0
2016-Apr-25 20:31N 35°37' E 139°48'0 0.0
2016-Apr-25 19:31N 35°37' E 139°48'0 0.0
2016-Apr-25 18:31N 35°37' E 139°48'0 0.0
2016-Apr-25 17:31N 35°37' E 139°48'0 0.0
2016-Apr-25 16:31N 35°37' E 139°48'0 0.0
2016-Apr-25 15:28N 35°37' E 139°48'0 0.0
2016-Apr-25 14:31N 35°37' E 139°48'0 0.0
2016-Apr-25 13:31N 35°37' E 139°48'0 0.0
2016-Apr-25 12:31N 35°37' E 139°48'0 0.0
2016-Apr-25 11:31N 35°37' E 139°48'0 0.0
2016-Apr-25 10:31N 35°37' E 139°48'0 0.0
2016-Apr-25 09:28N 35°37' E 139°48'0 0.0
2016-Apr-25 08:31N 35°37' E 139°48'0 0.0
2016-Apr-25 07:28N 35°37' E 139°48'0 0.0
2016-Apr-25 06:28N 35°37' E 139°48'0 0.0
2016-Apr-25 05:28N 35°37' E 139°48'0 0.0
2016-Apr-25 04:28N 35°37' E 139°48'0 0.0
2016-Apr-25 03:31N 35°37' E 139°48'0 0.0
2016-Apr-25 02:31N 35°37' E 139°48'0 0.0
2016-Apr-25 01:31N 35°37' E 139°48'0 0.0
2016-Apr-25 00:31N 35°37' E 139°48'0 0.0
2016-Apr-24 23:31N 35°37' E 139°48'0 0.0
2016-Apr-24 22:31N 35°37' E 139°48'0 0.0
2016-Apr-24 21:31N 35°37' E 139°48'0 0.0
2016-Apr-24 20:33N 35°37' E 139°48'10 9.7
2016-Apr-24 19:33N 35°27' E 139°51'1212.1
2016-Apr-24 18:33N 35°16' E 139°46'1817.0
2016-Apr-24 17:31N 34°60' E 139°37'6419.3
2016-Apr-24 14:11N 34°26' E 138°31'17718.4
2016-Apr-24 04:33N 34°01' E 134°59'2322.5
2016-Apr-24 03:33N 34°23' E 134°60'1312.7
2016-Apr-24 02:33N 34°35' E 134°53'20313.5
2016-Apr-23 11:32N 34°01' E 130°51'2220.9
2016-Apr-23 10:30N 33°57' E 130°25'1919.9
2016-Apr-23 09:33N 33°39' E 130°17'7 6.5
2016-Apr-23 08:32N 33°38' E 130°24'0 0.0
2016-Apr-23 07:32N 33°38' E 130°24'0 0.0
2016-Apr-23 06:33N 33°38' E 130°24'0 0.0
2016-Apr-23 05:33N 33°38' E 130°24'0 0.0
2016-Apr-23 04:33N 33°38' E 130°24'0 0.0
2016-Apr-23 03:33N 33°38' E 130°24'0 0.0
2016-Apr-23 02:33N 33°38' E 130°24'0 0.0
2016-Apr-23 01:33N 33°38' E 130°24'0 0.0
2016-Apr-23 00:33N 33°38' E 130°24'0 0.0
2016-Apr-22 23:33N 33°38' E 130°24'0 0.0
2016-Apr-22 22:33N 33°38' E 130°24'0 0.0
2016-Apr-22 21:30N 33°38' E 130°24'0 0.0
2016-Apr-22 20:32N 33°38' E 130°24'9 9.1
2016-Apr-22 19:33N 33°43' E 130°16'1918.8
2016-Apr-22 18:33N 33°58' E 130°28'  

Dump ship's entire track history